Matson Consumer — WCHF — position and weather

sailwx.info

Track history (hours):
 
Tides and Currents Weather Stations Pressure Air Temp Water Temp Dewpoint Dewpoint Depression Visibility Wind Speed Wind Dir Waves Ship Positions

Matson Consumer

Owner: MATSON NAVIGATION COMPANY OF ALASKA, INC., Oakland, CA. More information available from US FCC via Universal Licensing System and Coast Guard Vessel Documentation Center.

Last reported at 2017-Mar-11 04:32 UTC. Time now 2017-Jun-29 02:14 UTC.
Position N 47°35' W 122°21'.
Warning: this ship's position is months out of date.

Type: Cargo ship. MMSI: 368600000.

Date/timePositionNaut miles runAvg speedWind from/ knotsBaromVisibWave heightAir tempDewpointWater temp
2017-Mar-11 04:32N 47°35' W 122°21'1 0.8
2017-Mar-11 03:33N 47°35' W 122°21'4 4.2
2017-Mar-11 02:33N 47°33' W 122°26'1716.5
2017-Mar-11 01:33N 47°17' W 122°26'1 0.6
2017-Mar-11 00:33N 47°16' W 122°25'0 0.0
2017-Mar-10 21:33N 47°16' W 122°25'0 0.0
2017-Mar-10 20:33N 47°16' W 122°25'0 0.0
2017-Mar-10 19:33N 47°16' W 122°25'0 0.0
2017-Mar-10 18:33N 47°16' W 122°25'0 0.0
2017-Mar-10 17:33N 47°16' W 122°25'0 0.0
2017-Mar-10 16:33N 47°16' W 122°25'0 0.0
2017-Mar-10 15:33N 47°16' W 122°25'0 0.0
2017-Mar-10 14:32N 47°16' W 122°25'0 0.0
2017-Mar-10 13:31N 47°16' W 122°25'0 0.0
2017-Mar-10 12:30N 47°16' W 122°25'0 0.0
2017-Mar-10 11:31N 47°16' W 122°25'0 0.0
2017-Mar-10 10:33N 47°16' W 122°25'0 0.0
2017-Mar-10 09:33N 47°16' W 122°25'1 0.6
2017-Mar-10 08:33N 47°17' W 122°26'5 4.8
2017-Mar-10 07:33N 47°21' W 122°25'1818.3
2017-Mar-10 06:34N 47°40' W 122°28'1918.3
2017-Mar-10 05:33N 47°58' W 122°35'1818.5
2017-Mar-10 04:33N 48°11' W 122°53'1919.5
2017-Mar-10 03:33N 48°10' W 123°22'1111.3
2017-Mar-10 02:33N 48°14' W 123°38'1919.1
2017-Mar-10 01:33N 48°17' W 124°06'1919.2
2017-Mar-10 00:33N 48°25' W 124°33'1817.7
2017-Mar-09 23:33N 48°29' W 124°59'1918.5
2017-Mar-09 22:33N 48°31' W 125°27'1919.0
2017-Mar-09 21:33N 48°35' W 125°55'1919.2
2017-Mar-09 20:33N 48°42' W 126°22'4818.6
2017-Mar-09 18:00N 49°12' W 127°18'24620.5 120 / 141017.310.8 5.6-6.4 7.2
2017-Mar-09 06:00N 51°42' W 132°24'24220.2 250 / 61020.210.8 5.0-10.0 6.7
2017-Mar-08 18:00N 53°54' W 138°00'24320.2 050 / 141016.310.8 3.9-11.4 4.4
2017-Mar-08 06:00N 55°48' W 144°12'13422.3 230 / 101015.910.8 -2.2-4.4 3.9
2017-Mar-08 00:00N 56°48' W 147°48'11819.7 1016.110.8 0.6-15.6 4.4
2017-Mar-07 18:00N 57°30' W 151°12'   310 / 281018.810.8 -2.2-4.4 7.8
2017-Mar-05 00:00N 58°36' W 149°42'11519.1 010 / 151015.110.8 2.8-12.2 4.4
2017-Mar-04 18:00N 57°42' W 146°30'12921.5 350 / 221014.627.0 2.2-2.5 4.4
2017-Mar-04 12:00N 56°36' W 143°06'11118.5 020 / 261014.1 5.4 2.2-4.6 4.4
2017-Mar-04 06:00N 55°36' W 140°18'23419.5 070 / 301004.710.8 3.3 0.4
2017-Mar-03 18:00N 53°18' W 134°54'21618.0 290 / 20999.310.8 4.4-11.3
2017-Mar-03 06:00N 51°00' W 130°24'19018.2 240 / 341009.010.8 5.0-4.9
2017-Mar-02 19:33N 48°60' W 126°36'2019.9
2017-Mar-02 18:34N 48°47' W 126°12'1729.2
2017-Mar-02 18:00N 48°36' W 125°54'3 7.8 240 / 231022.210.8 8.3 3.1 7.8
2017-Mar-02 17:34N 48°35' W 125°49'1818.2
2017-Mar-02 16:34N 48°30' W 125°23'2019.5
2017-Mar-02 15:33N 48°31' W 124°53'2019.6
2017-Mar-02 14:33N 48°25' W 124°24'1919.4
2017-Mar-02 13:34N 48°18' W 123°58'1918.8
2017-Mar-02 12:34N 48°14' W 123°30'1212.1
2017-Mar-02 11:33N 48°11' W 123°12'1818.5
2017-Mar-02 10:33N 48°10' W 122°45'1918.7
2017-Mar-02 09:33N 47°55' W 122°29'2020.4
2017-Mar-02 08:33N 47°35' W 122°27'1716.8
2017-Mar-02 07:33N 47°18' W 122°27'2 1.8
2017-Mar-02 06:29N 47°16' W 122°25'0 0.0
2017-Mar-01 19:15N 47°16' W 122°25'0 0.0
2017-Mar-01 13:30N 47°16' W 122°25'0 0.0
2017-Mar-01 11:18N 47°16' W 122°25'0 0.0
2017-Mar-01 10:30N 47°16' W 122°25'0 0.0
2017-Mar-01 09:24N 47°16' W 122°25'0 0.0
2017-Mar-01 08:24N 47°16' W 122°25'0 0.0
2017-Mar-01 07:24N 47°16' W 122°25'0 0.0
2017-Mar-01 05:21N 47°16' W 122°25'  
Track history (hours):
 
Tides and Currents Weather Stations Pressure Air Temp Water Temp Dewpoint Dewpoint Depression Visibility Wind Speed Wind Dir Waves Ship Positions

Matson Consumer

Owner: MATSON NAVIGATION COMPANY OF ALASKA, INC., Oakland, CA. More information available from US FCC via Universal Licensing System and Coast Guard Vessel Documentation Center.

Last reported at 2017-Mar-11 04:32 UTC. Time now 2017-Jun-29 02:14 UTC.
Position N 47°35' W 122°21'.
Warning: this ship's position is months out of date.

Type: Cargo ship. MMSI: 368600000.

Date/timePositionNaut miles runAvg speedWind from/ knotsBaromVisibWave heightAir tempDewpointWater temp
2017-Mar-11 04:32N 47°35' W 122°21'1 0.8
2017-Mar-11 03:33N 47°35' W 122°21'4 4.2
2017-Mar-11 02:33N 47°33' W 122°26'1716.5
2017-Mar-11 01:33N 47°17' W 122°26'1 0.6
2017-Mar-11 00:33N 47°16' W 122°25'0 0.0
2017-Mar-10 21:33N 47°16' W 122°25'0 0.0
2017-Mar-10 20:33N 47°16' W 122°25'0 0.0
2017-Mar-10 19:33N 47°16' W 122°25'0 0.0
2017-Mar-10 18:33N 47°16' W 122°25'0 0.0
2017-Mar-10 17:33N 47°16' W 122°25'0 0.0
2017-Mar-10 16:33N 47°16' W 122°25'0 0.0
2017-Mar-10 15:33N 47°16' W 122°25'0 0.0
2017-Mar-10 14:32N 47°16' W 122°25'0 0.0
2017-Mar-10 13:31N 47°16' W 122°25'0 0.0
2017-Mar-10 12:30N 47°16' W 122°25'0 0.0
2017-Mar-10 11:31N 47°16' W 122°25'0 0.0
2017-Mar-10 10:33N 47°16' W 122°25'0 0.0
2017-Mar-10 09:33N 47°16' W 122°25'1 0.6
2017-Mar-10 08:33N 47°17' W 122°26'5 4.8
2017-Mar-10 07:33N 47°21' W 122°25'1818.3
2017-Mar-10 06:34N 47°40' W 122°28'1918.3
2017-Mar-10 05:33N 47°58' W 122°35'1818.5
2017-Mar-10 04:33N 48°11' W 122°53'1919.5
2017-Mar-10 03:33N 48°10' W 123°22'1111.3
2017-Mar-10 02:33N 48°14' W 123°38'1919.1
2017-Mar-10 01:33N 48°17' W 124°06'1919.2
2017-Mar-10 00:33N 48°25' W 124°33'1817.7
2017-Mar-09 23:33N 48°29' W 124°59'1918.5
2017-Mar-09 22:33N 48°31' W 125°27'1919.0
2017-Mar-09 21:33N 48°35' W 125°55'1919.2
2017-Mar-09 20:33N 48°42' W 126°22'4818.6
2017-Mar-09 18:00N 49°12' W 127°18'24620.5 120 / 141017.310.8 5.6-6.4 7.2
2017-Mar-09 06:00N 51°42' W 132°24'24220.2 250 / 61020.210.8 5.0-10.0 6.7
2017-Mar-08 18:00N 53°54' W 138°00'24320.2 050 / 141016.310.8 3.9-11.4 4.4
2017-Mar-08 06:00N 55°48' W 144°12'13422.3 230 / 101015.910.8 -2.2-4.4 3.9
2017-Mar-08 00:00N 56°48' W 147°48'11819.7 1016.110.8 0.6-15.6 4.4
2017-Mar-07 18:00N 57°30' W 151°12'   310 / 281018.810.8 -2.2-4.4 7.8
2017-Mar-05 00:00N 58°36' W 149°42'11519.1 010 / 151015.110.8 2.8-12.2 4.4
2017-Mar-04 18:00N 57°42' W 146°30'12921.5 350 / 221014.627.0 2.2-2.5 4.4
2017-Mar-04 12:00N 56°36' W 143°06'11118.5 020 / 261014.1 5.4 2.2-4.6 4.4
2017-Mar-04 06:00N 55°36' W 140°18'23419.5 070 / 301004.710.8 3.3 0.4
2017-Mar-03 18:00N 53°18' W 134°54'21618.0 290 / 20999.310.8 4.4-11.3
2017-Mar-03 06:00N 51°00' W 130°24'19018.2 240 / 341009.010.8 5.0-4.9
2017-Mar-02 19:33N 48°60' W 126°36'2019.9
2017-Mar-02 18:34N 48°47' W 126°12'1729.2
2017-Mar-02 18:00N 48°36' W 125°54'3 7.8 240 / 231022.210.8 8.3 3.1 7.8
2017-Mar-02 17:34N 48°35' W 125°49'1818.2
2017-Mar-02 16:34N 48°30' W 125°23'2019.5
2017-Mar-02 15:33N 48°31' W 124°53'2019.6
2017-Mar-02 14:33N 48°25' W 124°24'1919.4
2017-Mar-02 13:34N 48°18' W 123°58'1918.8
2017-Mar-02 12:34N 48°14' W 123°30'1212.1
2017-Mar-02 11:33N 48°11' W 123°12'1818.5
2017-Mar-02 10:33N 48°10' W 122°45'1918.7
2017-Mar-02 09:33N 47°55' W 122°29'2020.4
2017-Mar-02 08:33N 47°35' W 122°27'1716.8
2017-Mar-02 07:33N 47°18' W 122°27'2 1.8
2017-Mar-02 06:29N 47°16' W 122°25'0 0.0
2017-Mar-01 19:15N 47°16' W 122°25'0 0.0
2017-Mar-01 13:30N 47°16' W 122°25'0 0.0
2017-Mar-01 11:18N 47°16' W 122°25'0 0.0
2017-Mar-01 10:30N 47°16' W 122°25'0 0.0
2017-Mar-01 09:24N 47°16' W 122°25'0 0.0
2017-Mar-01 08:24N 47°16' W 122°25'0 0.0
2017-Mar-01 07:24N 47°16' W 122°25'0 0.0
2017-Mar-01 05:21N 47°16' W 122°25'  

Dump ship's entire track history